Have a Safe July 4th! 

Flight Track Log - Related Links

Times and Time Zones

All times are in EDT time to prevent confusion due to time zone crossing. See the RPA3392 flight status page for this flight to view local times or setup timezone preferences in your user account.

Time Position Orientation Groundspeed Altitude Reporting Facility
EDT Latitude Longitude Course Direction KTS MPH feet Rate Location/Type
Sun 05:54:55 PM 44.8333 -93.1833 117° Southeast 183 211 2,800  Level Minneapolis TRACON
Sun 05:56:09 PM 44.7981 -93.0986 120° Southeast 232 267 5,100 2,074 Climbing Minneapolis Center
Sun 05:57:11 PM 44.7706 -93.0031 112° Southeast 260 299 7,500 2,274 Climbing Minneapolis Center
Sun 05:58:13 PM 44.7436 -92.9017 110° East 275 316 9,800 2,129 Climbing Minneapolis Center
Sun 05:59:15 PM 44.7147 -92.7939 111° Southeast 294 338 11,900 1,887 Climbing Minneapolis Center
Sun 06:00:00 PM 44.6115 -92.3691 117° Southeast  Level FlightAware Approximate
Sun 06:00:17 PM 44.6767 -92.6544 111° Southeast 323 372 13,700  Level Minneapolis Center
Sun 06:01:19 PM 44.6444 -92.5333 110° East 332 382 15,800 1,902 Climbing Minneapolis Center
Sun 06:02:20 PM 44.6114 -92.4111 111° Southeast 336 387 17,600 1,610 Climbing Minneapolis Center
Sun 06:03:22 PM 44.5686 -92.2911 117° Southeast 342 394 19,100 1,500 Climbing Minneapolis Center
Sun 06:04:24 PM 44.5217 -92.1719 119° Southeast 348 400 20,700 1,452 Climbing Minneapolis Center
Sun 06:05:26 PM 44.4742 -92.0492 118° Southeast 357 411 22,100 1,258 Climbing Minneapolis Center
Sun 06:06:28 PM 44.4261 -91.9244 118° Southeast 365 420 23,300 1,258 Climbing Minneapolis Center
Sun 06:07:30 PM 44.3664 -91.7728 119° Southeast 371 427 24,700 1,113 Climbing Minneapolis Center
Sun 06:08:32 PM 44.3150 -91.6425 119° Southeast 380 437 25,600 1,016 Climbing Minneapolis Center
Sun 06:09:34 PM 44.2628 -91.5094 119° Southeast 389 448 26,800 1,065 Climbing Minneapolis Center
Sun 06:10:36 PM 44.2106 -91.3753 118° Southeast 394 453 27,800 1,024 Climbing Minneapolis Center
Sun 06:11:37 PM 44.1542 -91.2369 120° Southeast 402 463 28,900 1,171 Climbing Minneapolis Center
Sun 06:12:39 PM 44.0994 -91.0997 119° Southeast 406 467 30,200 1,016 Climbing Minneapolis Center
Sun 06:13:41 PM 44.0450 -90.9633 119° Southeast 405 466 31,000 1,016 Climbing Minneapolis Center
Sun 06:14:43 PM 43.9800 -90.8017 119° Southeast 403 464 32,300 1,161 Climbing Minneapolis Center
Sun 06:15:45 PM 43.9256 -90.6669 119° Southeast 403 464 33,400 978 Climbing Minneapolis Center
Sun 06:16:15 PM 43.9036 -90.6147 120° Southeast 401 461 33,800 1,065 Climbing Chicago Center
Sun 06:16:47 PM 43.8694 -90.5311 120° Southeast 399 459 34,500 766 Climbing Minneapolis Center
Sun 06:17:49 PM 43.8156 -90.3994 120° Southeast 395 455 35,000 242 Climbing Minneapolis Center
Sun 06:18:51 PM 43.7642 -90.2744 120° Southeast 392 451 35,000  Level Minneapolis Center
Sun 06:19:53 PM 43.7089 -90.1083 115° Southeast 396 456 35,000  Level Minneapolis Center
Sun 06:20:55 PM 43.6833 -89.9597 103° East 396 456 35,000  Level Minneapolis Center
Sun 06:21:57 PM 43.6581 -89.8125 103° East 397 457 35,000  Level Minneapolis Center
Sun 06:22:27 PM 43.6431 -89.7394 106° East 396 456 35,000  Level Chicago Center
Sun 06:23:29 PM 43.6167 -89.5906 104° East 397 457 35,000  Level Chicago Center
Sun 06:24:31 PM 43.5894 -89.4411 104° East 400 460 35,000  Level Chicago Center
Sun 06:25:33 PM 43.5575 -89.2650 104° East 404 465 35,000  Level Chicago Center
Sun 06:26:35 PM 43.5283 -89.1133 105° East 411 473 35,000  Level Chicago Center
Sun 06:27:37 PM 43.4994 -88.9564 104° East 420 483 35,000  Level Chicago Center
Sun 06:28:40 PM 43.4694 -88.7997 105° East 422 486 35,000  Level Chicago Center
Sun 06:29:42 PM 43.4394 -88.6456 105° East 421 484 35,000  Level Chicago Center
Sun 06:30:44 PM 43.4081 -88.4858 105° East 424 488 35,000  Level Chicago Center
Sun 06:31:46 PM 43.3758 -88.3169 105° East 422 486 35,000  Level Chicago Center
Sun 06:32:48 PM 43.3456 -88.1628 105° East 420 483 35,000  Level Chicago Center
Sun 06:33:50 PM 43.3106 -87.9833 105° East 416 479 35,000 -435 Level Chicago Center
Sun 06:34:52 PM 43.2808 -87.8361 105° East 404 465 34,100 -968 Descending Chicago Center
Sun 06:35:54 PM 43.2514 -87.6850 105° East 407 468 33,000 -532 Descending Chicago Center
Sun 06:36:56 PM 43.2200 -87.5356 106° East 407 468 33,000  Level Chicago Center
Sun 06:37:58 PM 43.1892 -87.3836 106° East 412 474 33,000  Level Chicago Center
Sun 06:39:00 PM 43.1572 -87.2253 105° East 417 480 33,000  Level Chicago Center
Sun 06:40:03 PM 43.1261 -87.0714 105° East 421 484 33,000  Level Chicago Center
Sun 06:41:05 PM 43.0942 -86.9178 106° East 421 484 33,000  Level Chicago Center
Sun 06:42:07 PM 43.0544 -86.7314 106° East 426 490 33,000  Level Chicago Center
Sun 06:43:09 PM 43.0217 -86.5761 106° East 428 493 33,000  Level Chicago Center
Sun 06:44:11 PM 42.9886 -86.4219 106° East 427 491 33,000  Level Chicago Center
Sun 06:45:13 PM 42.9556 -86.2681 106° East 428 493 33,000  Level Chicago Center
Sun 06:46:15 PM 42.9147 -86.0864 107° East 427 491 33,000  Level Chicago Center
Sun 06:47:17 PM 42.8819 -85.9336 106° East 430 495 33,000  Level Chicago Center
Sun 06:48:19 PM 42.8489 -85.7800 106° East 430 495 33,000  Level Chicago Center
Sun 06:49:21 PM 42.8147 -85.6247 107° East 431 496 33,000  Level Chicago Center
Sun 06:50:23 PM 42.7781 -85.4706 108° East 432 497 33,000  Level Chicago Center
Sun 06:51:25 PM 42.7189 -85.3014 115° Southeast 417 480 33,000  Level Chicago Center
Sun 06:52:28 PM 42.6686 -85.1592 116° Southeast 417 480 33,000  Level Chicago Center
Sun 06:53:30 PM 42.6178 -85.0128 115° Southeast 425 489 33,000  Level Chicago Center
Sun 06:54:32 PM 42.5628 -84.8706 118° Southeast 428 493 33,000  Level Chicago Center
Sun 06:55:34 PM 42.4925 -84.7433 127° Southeast 423 487 33,000  Level Chicago Center
Sun 06:56:36 PM 42.4211 -84.6192 128° Southeast 419 482 33,000  Level Chicago Center
Sun 06:57:38 PM 42.3367 -84.4669 127° Southeast 420 483 33,000  Level Chicago Center
Sun 06:58:40 PM 42.2681 -84.3433 127° Southeast 412 474 33,000  Level Chicago Center
Sun 06:59:07 PM 42.2297 -84.2822 130° Southeast 423 487 33,000  Level Cleveland Center
Sun 07:00:07 PM 42.1606 -84.1606 127° Southeast 418 481 33,000  Level Cleveland Center
Sun 07:01:07 PM 42.0914 -84.0392 127° Southeast 418 481 33,000  Level Cleveland Center
Sun 07:02:07 PM 42.0219 -83.9178 128° Southeast 413 475 33,000  Level Cleveland Center
Sun 07:03:07 PM 41.9525 -83.7942 127° Southeast 413 475 33,000  Level Cleveland Center
Sun 07:04:07 PM 41.8808 -83.6706 128° Southeast 413 475 33,000  Level Cleveland Center
Sun 07:05:07 PM 41.8133 -83.5475 126° Southeast 413 475 33,000  Level Cleveland Center
Sun 07:06:07 PM 41.7472 -83.4358 128° Southeast 413 475 33,000  Level Cleveland Center
Sun 07:07:07 PM 41.6772 -83.3133 127° Southeast 413 475 33,000  Level Cleveland Center
Sun 07:08:07 PM 41.6072 -83.1908 127° Southeast 413 475 33,000  Level Cleveland Center
Sun 07:09:07 PM 41.5308 -83.0603 128° Southeast 420 483 33,000  Level Cleveland Center
Sun 07:10:07 PM 41.4583 -82.9356 128° Southeast 420 483 33,000  Level Cleveland Center
Sun 07:11:07 PM 41.3878 -82.8139 128° Southeast 420 483 33,000  Level Cleveland Center
Sun 07:12:07 PM 41.3150 -82.6925 129° Southeast 420 483 33,000  Level Cleveland Center
Sun 07:13:07 PM 41.2444 -82.5686 127° Southeast 425 489 33,000  Level Cleveland Center
Sun 07:14:07 PM 41.1714 -82.4478 129° Southeast 425 489 33,000  Level Cleveland Center
Sun 07:15:07 PM 41.0983 -82.3272 129° Southeast 425 489 33,000  Level Cleveland Center
Sun 07:16:07 PM 41.0292 -82.2069 127° Southeast 425 489 33,000  Level Cleveland Center
Sun 07:17:07 PM 40.9556 -82.0869 129° Southeast 425 489 33,000  Level Cleveland Center
Sun 07:18:07 PM 40.8822 -81.9672 129° Southeast 425 489 33,000  Level Cleveland Center
Sun 07:19:07 PM 40.8106 -81.8450 128° Southeast 425 489 33,000  Level Cleveland Center
Sun 07:20:07 PM 40.7367 -81.7286 130° Southeast 425 489 33,000  Level Cleveland Center
Sun 07:21:07 PM 40.6650 -81.6069 128° Southeast 425 489 33,000  Level Cleveland Center
Sun 07:22:07 PM 40.5972 -81.4992 130° Southeast 425 489 33,000  Level Cleveland Center
Sun 07:23:07 PM 40.5231 -81.3725 128° Southeast 415 478 33,000  Level Cleveland Center
Sun 07:24:07 PM 40.4508 -81.2542 129° Southeast 415 478 33,000  Level Cleveland Center
Sun 07:25:07 PM 40.3681 -81.1553 138° Southeast 405 466 33,000  Level Cleveland Center
Sun 07:26:07 PM 40.2744 -81.0675 144° Southeast 405 466 33,000  Level Cleveland Center
Sun 07:27:07 PM 40.1894 -80.9608 136° Southeast 416 479 33,000  Level Cleveland Center
Sun 07:28:07 PM 40.1211 -80.8303 124° Southeast 431 496 33,000  Level Cleveland Center
Sun 07:29:07 PM 40.0506 -80.6969 125° Southeast 442 509 33,000  Level Cleveland Center
Sun 07:30:07 PM 39.9797 -80.5642 125° Southeast 442 509 33,000  Level Cleveland Center
Sun 07:31:07 PM 39.9067 -80.4342 126° Southeast 442 509 33,000  Level Cleveland Center
Sun 07:32:07 PM 39.8375 -80.3047 125° Southeast 442 509 33,000 -300 Level Cleveland Center
Sun 07:33:07 PM 39.7683 -80.1753 125° Southeast 442 509 32,400 -650 Descending Cleveland Center
Sun 07:34:07 PM 39.7033 -80.0569 126° Southeast 447 514 31,700 -459 Descending Cleveland Center
Sun 07:36:10 PM 39.5533 -79.7822 125° Southeast 444 511 31,000 -228 Descending Washington Center
Sun 07:37:11 PM 39.4767 -79.6433 126° Southeast 465 535 31,000  Level Washington Center
Sun 07:38:11 PM 39.4042 -79.5050 124° Southeast 483 556 31,000  Level Washington Center
Sun 07:39:08 PM 39.3489 -79.3492 115° Southeast 488 562 31,000 -864 Level Washington Center
Sun 07:40:09 PM 39.2897 -79.1664 113° Southeast 504 580 29,300 -2,049 Descending Washington Center
Sun 07:41:11 PM 39.2400 -79.0083 112° Southeast 491 565 26,800 -2,459 Descending Washington Center
Sun 07:42:11 PM 39.2111 -78.8489 103° East 473 544 24,300 -2,492 Descending Washington Center
Sun 07:43:09 PM 39.1967 -78.6903 97° East 459 528 21,900 -2,319 Descending Washington Center
Sun 07:44:10 PM 39.1817 -78.5369 97° East 441 507 19,700 -2,182 Descending Washington Center
Sun 07:45:10 PM 39.1664 -78.3919 98° East 425 489 17,500 -1,736 Descending Washington Center
Sun 07:46:11 PM 39.1403 -78.2625 105° East 393 452 16,200 -1,140 Descending Washington Center
Sun 07:47:11 PM 39.1075 -78.1381 109° East 368 423 15,200 -1,041 Descending Washington Center
Sun 07:48:12 PM 39.0767 -78.0167 108° East 363 418 14,100 -1,119 Descending Washington Center
Sun 07:49:09 PM 39.0456 -77.9008 109° East 356 410 13,000 -1,424 Descending Washington Center
Sun 07:50:10 PM 39.0164 -77.7850 108° East 343 395 11,300 -984 Descending Washington Center
Sun 07:51:11 PM 38.9911 -77.6828 108° East 316 364 11,000 -545 Descending Washington Center
Sun 07:52:11 PM 38.9636 -77.5911 111° Southeast 283 326 10,200 -1,438 Descending Washington Center
Sun 07:53:12 PM 38.9500 -77.4833 99° East 301 346 8,100 -1,587 Descending Potomac TRACON
Sun 07:54:12 PM 39.0000 -77.4000 52° Northeast 289 333 7,000 -645 Descending Potomac TRACON
Sun 07:55:13 PM 39.0500 -77.3333 46° Northeast 216 249 6,800 -793 Descending Potomac TRACON
Sun 07:56:13 PM 39.0667 -77.2667 72° East 193 222 5,400 -1,300 Descending Potomac TRACON
Sun 07:57:13 PM 39.0333 -77.2333 142° Southeast 169 194 4,200 -1,050 Descending Potomac TRACON
Sun 07:58:13 PM 39.0000 -77.1833 131° Southeast 164 189 3,300 -842 Descending Potomac TRACON
Sun 07:59:07 PM 38.9667 -77.1500 142° Southeast 161 185 2,600 -737 Descending Potomac TRACON
Sun 08:00:07 PM 38.9333 -77.1167 142° Southeast 145 167 1,900 -714 Descending Potomac TRACON
Sun 08:01:13 PM 38.9000 -77.0833 142° Southeast 126 145 1,100 -661 Descending Potomac TRACON
Sun 08:02:14 PM 38.8833 -77.0667 142° Southeast 126 145 500 -590 Descending Potomac TRACON
Sun 08:04:00 PM 38.8519 -77.0377 165° South  Level Estimated
Sun 08:11:00 PM 38.8500 -77.0333 North  Level FlightAware Approximate

Login

Don't have an account? Register now (free) for customized features, flight alerts, and more!